Time;durP1;ratioP1;P1;durP2;ratioP2;P2;SDS_P1;SDS_P2;PMS_P1;PMS_P2;Temp;Humidity;BMP_temperature;BMP_pressure;BME280_temperature;BME280_humidity;BME280_pressure;Samples;Min_cycle;Max_cycle;Signal;HPM_P1;HPM_P2
2022/07/08 00:01:57;;;;;;;5.75;1.52;;;14.20;99.90;;;;;;6218823;23;20019;-91
2022/07/08 00:04:26;;;;;;;7.93;1.88;;;14.10;99.90;;;;;;6243700;23;20009;-91
2022/07/08 00:06:52;;;;;;;7.50;1.60;;;13.90;99.90;;;;;;6243771;23;20086;-91
2022/07/08 00:09:21;;;;;;;9.75;1.85;;;14.10;99.90;;;;;;6243770;22;20099;-90
2022/07/08 00:11:47;;;;;;;8.40;1.58;;;14.20;99.90;;;;;;6217925;23;20016;-90
2022/07/08 00:14:13;;;;;;;5.90;1.77;;;14.10;99.90;;;;;;6243772;23;20021;-90
2022/07/08 00:16:43;;;;;;;5.18;1.38;;;13.50;99.90;;;;;;6216720;23;20447;-90
2022/07/08 00:19:14;;;;;;;6.82;1.73;;;14.00;99.90;;;;;;6218138;23;20020;-91
2022/07/08 00:21:43;;;;;;;4.95;1.55;;;14.10;99.90;;;;;;6220484;23;20337;-91
2022/07/08 00:24:13;;;;;;;10.65;2.30;;;14.00;99.90;;;;;;6221521;23;20069;-90
2022/07/08 00:26:40;;;;;;;14.30;2.67;;;14.10;99.90;;;;;;6219882;23;20091;-90
2022/07/08 00:29:07;;;;;;;8.10;1.65;;;13.50;99.90;;;;;;6220607;22;20751;-90
2022/07/08 00:31:36;;;;;;;5.22;1.60;;;14.10;99.90;;;;;;6220149;23;20050;-90
2022/07/08 00:34:02;;;;;;;10.48;1.48;;;14.10;99.90;;;;;;6220998;23;20016;-90
2022/07/08 00:36:28;;;;;;;5.95;1.40;;;14.10;99.90;;;;;;6245249;23;20016;-88
2022/07/08 00:38:54;;;;;;;8.45;1.60;;;14.10;99.90;;;;;;6246044;22;20027;-89
2022/07/08 00:41:21;;;;;;;5.95;2.33;;;14.20;99.90;;;;;;6218866;23;20018;-90
2022/07/08 00:43:47;;;;;;;6.00;1.92;;;14.20;99.90;;;;;;6219517;23;20337;-90
2022/07/08 00:46:15;;;;;;;5.15;1.30;;;14.10;99.90;;;;;;6220124;23;20074;-90
2022/07/08 00:48:42;;;;;;;14.30;1.50;;;14.00;99.90;;;;;;6219888;23;20020;-91
2022/07/08 00:51:12;;;;;;;8.15;1.63;;;13.90;99.90;;;;;;6246082;23;20051;-90
2022/07/08 00:53:41;;;;;;;5.13;1.58;;;14.10;99.90;;;;;;6219489;23;20016;-91
2022/07/08 00:56:10;;;;;;;7.97;1.50;;;13.90;99.90;;;;;;6221056;23;20015;-91
2022/07/08 00:58:42;;;;;;;8.68;1.80;;;13.90;99.90;;;;;;6193830;23;20039;-91
2022/07/08 01:01:08;;;;;;;5.88;2.10;;;14.00;99.90;;;;;;6218466;23;20008;-90
2022/07/08 01:03:37;;;;;;;8.43;1.60;;;13.90;99.90;;;;;;6219727;23;20070;-92
2022/07/08 01:06:03;;;;;;;12.35;1.80;;;13.90;99.90;;;;;;6249599;22;20437;-90
2022/07/08 01:08:29;;;;;;;7.57;1.75;;;14.00;99.90;;;;;;6249826;22;20019;-90
2022/07/08 01:10:55;;;;;;;8.10;2.15;;;14.00;99.90;;;;;;6223931;22;20059;-90
2022/07/08 01:13:22;;;;;;;7.38;1.40;;;13.90;99.90;;;;;;6225102;22;20016;-90
2022/07/08 01:15:51;;;;;;;6.85;1.70;;;13.90;99.90;;;;;;6225211;22;20012;-90
2022/07/08 01:18:27;;;;;;;5.53;1.60;;;13.60;99.90;;;;;;6250083;22;20077;-89
2022/07/08 01:20:53;;;;;;;7.00;1.58;;;13.60;99.90;;;;;;6224984;22;20008;-90
2022/07/08 01:23:23;;;;;;;8.32;1.40;;;13.50;99.90;;;;;;6225331;22;20065;-90
2022/07/08 01:25:48;;;;;;;5.85;1.30;;;13.40;99.90;;;;;;6224642;22;20012;-90
2022/07/08 01:28:15;;;;;;;2.55;1.10;;;13.20;99.90;;;;;;6249871;22;20016;-89
2022/07/08 01:30:41;;;;;;;6.13;1.33;;;13.20;99.90;;;;;;6224825;22;20011;-91
2022/07/08 01:33:08;;;;;;;7.85;1.65;;;13.00;99.90;;;;;;6225030;22;20101;-91
2022/07/08 01:35:36;;;;;;;6.40;1.70;;;12.90;99.90;;;;;;6225498;22;20015;-90
2022/07/08 01:38:03;;;;;;;6.45;1.52;;;12.60;99.90;;;;;;6175209;22;20062;-90
2022/07/08 01:40:29;;;;;;;10.73;1.50;;;12.80;99.90;;;;;;6225221;22;20016;-90
2022/07/08 01:42:55;;;;;;;7.35;1.80;;;12.80;99.90;;;;;;6224631;22;20012;-91
2022/07/08 01:45:23;;;;;;;10.55;1.98;;;12.80;99.90;;;;;;6225195;22;20016;-90
2022/07/08 01:47:49;;;;;;;7.10;1.60;;;12.70;99.90;;;;;;6250156;22;20050;-90
2022/07/08 01:50:15;;;;;;;8.30;1.60;;;12.80;99.90;;;;;;6200780;22;20019;-90
2022/07/08 01:52:41;;;;;;;10.07;2.05;;;12.70;99.90;;;;;;6224278;22;20553;-91
2022/07/08 01:55:08;;;;;;;7.07;1.60;;;12.90;99.90;;;;;;6225288;22;20011;-92
2022/07/08 01:57:37;;;;;;;6.82;1.30;;;12.70;99.90;;;;;;6249524;22;20073;-89
2022/07/08 02:00:05;;;;;;;8.48;1.80;;;12.20;99.90;;;;;;6225591;22;20043;-90
2022/07/08 02:02:31;;;;;;;4.88;1.65;;;12.70;99.90;;;;;;6224486;22;20012;-90
2022/07/08 02:04:57;;;;;;;11.50;1.90;;;12.70;99.90;;;;;;6249229;22;20157;-90
2022/07/08 02:07:23;;;;;;;8.65;2.42;;;12.80;99.90;;;;;;6249507;22;20051;-90
2022/07/08 02:09:49;;;;;;;7.05;1.70;;;11.90;99.90;;;;;;6225071;22;20016;-89
2022/07/08 02:12:18;;;;;;;18.60;2.10;;;12.60;99.90;;;;;;6225376;22;20023;-92
2022/07/08 02:14:46;;;;;;;9.30;1.70;;;13.10;99.90;;;;;;6223761;22;20022;-89
2022/07/08 02:17:14;;;;;;;10.75;2.20;;;12.50;99.90;;;;;;6248415;22;20019;-91
2022/07/08 02:19:41;;;;;;;4.82;1.50;;;12.60;99.90;;;;;;6222609;22;20019;-90
2022/07/08 02:22:07;;;;;;;9.07;2.50;;;12.70;99.90;;;;;;6222401;22;20011;-90
2022/07/08 02:24:34;;;;;;;8.52;1.65;;;12.60;99.90;;;;;;6222881;22;20018;-90
2022/07/08 02:27:00;;;;;;;9.85;1.83;;;12.70;99.90;;;;;;6223023;22;20364;-90
2022/07/08 02:29:26;;;;;;;5.93;1.80;;;12.60;99.90;;;;;;6223078;22;20463;-90
2022/07/08 02:31:52;;;;;;;7.97;1.95;;;12.60;99.90;;;;;;6247996;22;20046;-91
2022/07/08 02:34:18;;;;;;;8.95;2.20;;;12.60;99.90;;;;;;6247984;22;20165;-91
2022/07/08 02:36:47;;;;;;;4.35;1.65;;;12.50;99.90;;;;;;6246946;22;20071;-90
2022/07/08 02:39:13;;;;;;;6.53;1.88;;;12.60;99.90;;;;;;6247857;22;20095;-90
2022/07/08 02:41:42;;;;;;;8.30;1.80;;;12.60;99.90;;;;;;6222350;22;20043;-91
2022/07/08 02:44:09;;;;;;;5.95;1.80;;;12.70;99.90;;;;;;6247278;22;20102;-91
2022/07/08 02:46:36;;;;;;;11.43;1.90;;;12.70;99.90;;;;;;6224842;22;20217;-91
2022/07/08 02:49:04;;;;;;;5.65;1.60;;;12.80;99.90;;;;;;6223310;22;20022;-90
2022/07/08 02:51:30;;;;;;;7.47;1.85;;;13.10;99.90;;;;;;6224144;22;20063;-91
2022/07/08 02:53:56;;;;;;;11.15;2.13;;;12.80;99.90;;;;;;6246995;22;20050;-89
2022/07/08 02:56:25;;;;;;;4.53;1.48;;;12.70;99.90;;;;;;6247288;22;20050;-91
2022/07/08 02:58:51;;;;;;;10.18;2.00;;;12.80;99.90;;;;;;6222011;22;20372;-90
2022/07/08 03:01:16;;;;;;;7.93;1.70;;;12.80;99.90;;;;;;6222435;22;20014;-91
2022/07/08 03:03:45;;;;;;;7.85;1.77;;;12.60;99.90;;;;;;6221549;22;20016;-90
2022/07/08 03:06:11;;;;;;;8.88;2.17;;;12.60;99.90;;;;;;6246842;22;20018;-90
2022/07/08 03:08:39;;;;;;;8.73;2.25;;;12.50;99.90;;;;;;6248367;22;20407;-91
2022/07/08 03:11:08;;;;;;;10.45;1.80;;;12.60;99.90;;;;;;6223172;22;20019;-90
2022/07/08 03:13:36;;;;;;;6.68;2.03;;;12.50;99.90;;;;;;6222543;22;20385;-89
2022/07/08 03:16:06;;;;;;;7.55;1.80;;;12.60;99.90;;;;;;6248344;22;20015;-89
2022/07/08 03:18:36;;;;;;;11.02;2.40;;;12.70;99.90;;;;;;6222660;22;20090;-89
2022/07/08 03:21:09;;;;;;;10.77;1.70;;;12.50;99.90;;;;;;6223613;22;20065;-90
2022/07/08 03:23:35;;;;;;;10.05;2.03;;;12.50;99.90;;;;;;6222477;22;20037;-90
2022/07/08 03:26:04;;;;;;;7.00;1.77;;;12.50;99.90;;;;;;6247770;22;20016;-89
2022/07/08 03:28:30;;;;;;;7.85;1.92;;;12.40;99.90;;;;;;6223778;22;20018;-90
2022/07/08 03:30:58;;;;;;;10.60;1.95;;;12.40;99.90;;;;;;6249404;22;20055;-92
2022/07/08 03:33:27;;;;;;;7.28;1.80;;;12.30;99.90;;;;;;6202161;22;20367;-91
2022/07/08 03:35:53;;;;;;;10.00;1.90;;;12.40;99.90;;;;;;6230957;22;20015;-90
2022/07/08 03:38:19;;;;;;;7.75;1.90;;;12.60;99.90;;;;;;6222486;22;20692;-89
2022/07/08 03:41:45;;;;;;;9.45;2.40;;;12.60;99.90;;;;;;6222312;22;20028;-90
2022/07/08 03:43:41;;;;;;;10.48;2.58;;;12.60;99.90;;;;;;6209943;22;20428;-91
2022/07/08 03:46:07;;;;;;;10.70;2.55;;;12.70;99.90;;;;;;6224896;22;20007;-89
2022/07/08 03:48:33;;;;;;;4.97;1.65;;;12.70;99.90;;;;;;6250504;22;20046;-89
2022/07/08 03:50:59;;;;;;;4.22;1.67;;;12.60;99.90;;;;;;6250548;22;20015;-90
2022/07/08 03:53:25;;;;;;;8.07;1.98;;;12.80;99.90;;;;;;6250365;22;20019;-90
2022/07/08 03:55:51;;;;;;;5.57;1.80;;;12.60;99.90;;;;;;6226360;22;20509;-90
2022/07/08 03:58:17;;;;;;;6.13;2.35;;;12.60;99.90;;;;;;6251576;22;20016;-89
2022/07/08 04:00:43;;;;;;;5.80;1.83;;;12.70;99.90;;;;;;6226734;22;20165;-89
2022/07/08 04:03:12;;;;;;;7.07;1.92;;;12.70;99.90;;;;;;6252352;22;20015;-90
2022/07/08 04:05:38;;;;;;;8.00;2.00;;;12.20;99.90;;;;;;6227169;22;20014;-90
2022/07/08 04:08:05;;;;;;;7.32;2.35;;;12.30;99.90;;;;;;6227266;22;20120;-89
2022/07/08 04:10:34;;;;;;;6.18;2.03;;;12.80;99.90;;;;;;6227244;22;20011;-90
2022/07/08 04:13:00;;;;;;;8.13;1.80;;;12.00;99.90;;;;;;6228077;22;20012;-90
2022/07/08 04:15:26;;;;;;;8.18;1.75;;;12.70;99.90;;;;;;6226370;22;20016;-90
2022/07/08 04:17:52;;;;;;;6.13;2.00;;;12.90;99.90;;;;;;6201637;22;20042;-90
2022/07/08 04:20:19;;;;;;;6.70;2.20;;;12.70;99.90;;;;;;6225966;22;20786;-90
2022/07/08 04:22:47;;;;;;;4.78;2.00;;;12.90;99.90;;;;;;6226096;22;20012;-89
2022/07/08 04:25:13;;;;;;;7.55;2.15;;;12.90;99.90;;;;;;6226662;22;20008;-90
2022/07/08 04:27:39;;;;;;;7.00;1.83;;;12.90;99.90;;;;;;6251323;22;20043;-91
2022/07/08 04:30:05;;;;;;;8.05;2.88;;;13.10;99.90;;;;;;6226815;22;20503;-90
2022/07/08 04:32:31;;;;;;;10.30;2.30;;;13.00;99.90;;;;;;6225415;22;20730;-89
2022/07/08 04:34:59;;;;;;;8.48;2.20;;;13.30;99.90;;;;;;6226101;22;20015;-90
2022/07/08 04:37:26;;;;;;;15.15;2.50;;;13.40;99.90;;;;;;6251315;22;20462;-89
2022/07/08 04:39:53;;;;;;;7.30;2.45;;;13.40;99.90;;;;;;6226065;22;20094;-91
2022/07/08 04:42:19;;;;;;;6.50;2.13;;;13.40;99.90;;;;;;6226319;22;20011;-91
2022/07/08 04:44:45;;;;;;;10.10;2.38;;;13.60;99.90;;;;;;6225564;22;20012;-91
2022/07/08 04:47:10;;;;;;;14.20;2.63;;;13.70;99.90;;;;;;6252348;22;20019;-92
2022/07/08 04:49:39;;;;;;;10.32;2.40;;;13.70;99.90;;;;;;6226470;22;20015;-89
2022/07/08 04:52:06;;;;;;;7.22;2.42;;;14.10;99.90;;;;;;6226885;22;20049;-91
2022/07/08 04:54:37;;;;;;;10.98;2.38;;;14.10;99.90;;;;;;6226881;22;20022;-88
2022/07/08 04:57:06;;;;;;;7.15;2.20;;;14.10;99.90;;;;;;6225917;22;20086;-91
2022/07/08 04:59:32;;;;;;;8.35;2.22;;;14.00;99.90;;;;;;6226160;22;20012;-92
2022/07/08 05:01:58;;;;;;;8.65;2.38;;;14.20;99.90;;;;;;6251375;22;20011;-90
2022/07/08 05:04:24;;;;;;;9.43;2.30;;;14.20;99.90;;;;;;6225845;22;20045;-90
2022/07/08 05:06:50;;;;;;;8.88;2.30;;;14.50;99.90;;;;;;6252045;22;20016;-91
2022/07/08 05:09:16;;;;;;;8.95;2.22;;;14.40;99.90;;;;;;6225349;22;20137;-91
2022/07/08 05:11:42;;;;;;;6.05;1.90;;;14.60;99.90;;;;;;6176616;22;20340;-89
2022/07/08 05:14:12;;;;;;;9.98;2.00;;;14.50;99.90;;;;;;6225757;22;20012;-91
2022/07/08 05:16:40;;;;;;;6.15;2.10;;;14.50;99.90;;;;;;6202520;22;20077;-89
2022/07/08 05:19:07;;;;;;;11.32;2.80;;;14.50;99.90;;;;;;6226275;22;20344;-90
2022/07/08 05:21:36;;;;;;;7.90;1.90;;;14.80;99.90;;;;;;6227445;22;20015;-90
2022/07/08 05:24:05;;;;;;;9.80;2.50;;;14.60;99.90;;;;;;6227361;22;20011;-91
2022/07/08 05:26:32;;;;;;;8.93;2.78;;;14.80;99.90;;;;;;6226820;22;20007;-90
2022/07/08 05:28:58;;;;;;;6.80;1.98;;;14.80;99.90;;;;;;6251066;22;20015;-90
2022/07/08 05:31:23;;;;;;;5.30;2.00;;;14.80;99.90;;;;;;6225790;22;20448;-90
2022/07/08 05:33:49;;;;;;;10.20;2.20;;;15.00;99.90;;;;;;6200912;22;20015;-89
2022/07/08 05:36:18;;;;;;;11.48;2.47;;;15.20;99.90;;;;;;6240261;22;20019;-91
2022/07/08 05:38:44;;;;;;;5.28;1.85;;;14.60;99.90;;;;;;6252738;22;20038;-89
2022/07/08 05:41:10;;;;;;;12.73;2.20;;;15.10;99.90;;;;;;6225855;22;20448;-89
2022/07/08 05:43:36;;;;;;;7.15;2.15;;;15.30;99.90;;;;;;6200300;22;20012;-89
2022/07/08 05:46:03;;;;;;;7.45;2.35;;;15.20;99.90;;;;;;6250898;22;20065;-89
2022/07/08 05:48:29;;;;;;;7.38;2.50;;;15.40;99.90;;;;;;6176689;22;20008;-90
2022/07/08 05:51:00;;;;;;;6.88;2.10;;;15.40;99.90;;;;;;6200687;22;20043;-90
2022/07/08 05:53:26;;;;;;;8.82;2.10;;;15.40;99.90;;;;;;6227898;22;20018;-90
2022/07/08 05:55:52;;;;;;;9.10;2.33;;;15.70;99.90;;;;;;6225608;22;20012;-93
2022/07/08 05:58:21;;;;;;;6.35;1.55;;;15.70;99.90;;;;;;6249036;22;20091;-90
2022/07/08 06:00:47;;;;;;;7.53;2.08;;;16.70;99.90;;;;;;6175667;22;20008;-90
2022/07/08 06:03:13;;;;;;;10.73;2.00;;;15.70;99.90;;;;;;6225669;22;20458;-90
2022/07/08 06:05:42;;;;;;;8.23;1.90;;;15.60;99.90;;;;;;6226029;22;20012;-91
2022/07/08 06:08:08;;;;;;;10.07;2.53;;;15.90;99.90;;;;;;6250328;22;20015;-89
2022/07/08 06:10:34;;;;;;;9.02;2.15;;;16.00;99.90;;;;;;6226448;22;20729;-91
2022/07/08 06:13:00;;;;;;;8.60;2.00;;;16.10;99.90;;;;;;6251855;22;20411;-89
2022/07/08 06:15:26;;;;;;;10.80;3.08;;;16.00;99.90;;;;;;6226220;22;20016;-90
2022/07/08 06:17:53;;;;;;;10.73;1.95;;;15.90;99.90;;;;;;6175641;22;20012;-91
2022/07/08 06:20:19;;;;;;;7.28;1.83;;;16.30;99.90;;;;;;6225163;22;20012;-89
2022/07/08 06:22:45;;;;;;;6.47;1.98;;;16.30;99.90;;;;;;6251452;22;20022;-88
2022/07/08 06:25:10;;;;;;;7.38;2.40;;;16.40;99.90;;;;;;6226383;22;20011;-90
2022/07/08 06:27:36;;;;;;;10.82;2.13;;;16.50;99.90;;;;;;6250888;22;20007;-89
2022/07/08 06:30:03;;;;;;;8.70;1.95;;;16.80;99.90;;;;;;6199786;22;20020;-89
2022/07/08 06:32:32;;;;;;;7.65;2.03;;;16.70;99.90;;;;;;6224540;22;20051;-89
2022/07/08 06:35:00;;;;;;;9.00;2.53;;;16.60;99.90;;;;;;6224747;22;20015;-92
2022/07/08 06:37:26;;;;;;;7.85;2.20;;;16.80;99.90;;;;;;6249953;22;20012;-91
2022/07/08 06:39:54;;;;;;;8.02;2.60;;;17.10;99.90;;;;;;6250474;22;20445;-90
2022/07/08 06:42:20;;;;;;;6.10;1.80;;;17.10;99.90;;;;;;6225447;22;20011;-90
2022/07/08 06:44:49;;;;;;;8.63;1.90;;;17.00;99.90;;;;;;6225164;22;20042;-90
2022/07/08 06:47:15;;;;;;;13.73;3.70;;;17.30;99.90;;;;;;6224660;22;20506;-91
2022/07/08 06:49:41;;;;;;;7.03;1.80;;;17.40;99.90;;;;;;6250811;22;20012;-89
2022/07/08 06:52:13;;;;;;;6.70;2.00;;;17.50;99.90;;;;;;6224904;22;20034;-89
2022/07/08 06:54:39;;;;;;;11.00;3.65;;;17.40;99.90;;;;;;6250846;22;20023;-89
2022/07/08 06:57:09;;;;;;;8.73;1.92;;;17.30;99.90;;;;;;6199480;22;20023;-89
2022/07/08 06:59:38;;;;;;;5.70;1.98;;;17.20;99.90;;;;;;6225933;22;20062;-90
2022/07/08 07:02:05;;;;;;;7.15;1.80;;;17.30;99.90;;;;;;6225022;22;20012;-89
2022/07/08 07:04:31;;;;;;;7.80;2.20;;;17.50;99.90;;;;;;6224960;22;20011;-90
2022/07/08 07:06:57;;;;;;;7.00;2.00;;;17.60;99.90;;;;;;6224759;22;20706;-91
2022/07/08 07:09:26;;;;;;;7.03;2.35;;;17.60;99.90;;;;;;6224191;22;20020;-91
2022/07/08 07:12:24;;;;;;;4.35;1.63;;;17.60;99.90;;;;;;6250517;22;20491;-91
2022/07/08 07:14:59;;;;;;;5.03;1.63;;;17.50;99.90;;;;;;6225577;22;20090;-91
2022/07/08 07:17:25;;;;;;;7.32;2.08;;;17.60;99.90;;;;;;6225544;22;20065;-91
2022/07/08 07:20:07;;;;;;;7.40;1.90;;;17.50;99.90;;;;;;6226488;22;20094;-94
2022/07/08 07:22:57;;;;;;;4.47;1.75;;;17.60;99.90;;;;;;6252663;22;20012;-91
2022/07/08 07:33:32;;;;;;;11.07;2.08;;;17.40;99.90;;;;;;6129860;23;20021;-92
2022/07/08 07:36:21;;;;;;;6.00;1.70;;;17.20;99.90;;;;;;6070820;23;20018;-92
2022/07/08 07:38:49;;;;;;;5.40;1.33;;;17.50;99.90;;;;;;6091201;23;20020;-91
2022/07/08 07:41:21;;;;;;;4.40;1.55;;;17.80;99.90;;;;;;6164166;23;20016;-91
2022/07/08 07:43:50;;;;;;;9.85;1.95;;;17.70;99.90;;;;;;6163628;23;20020;-91
2022/07/08 07:46:19;;;;;;;4.57;1.67;;;17.70;99.90;;;;;;6164047;23;20024;-91
2022/07/08 07:48:54;;;;;;;4.82;1.92;;;17.70;99.90;;;;;;6163462;23;20016;-93
2022/07/08 07:51:46;;;;;;;5.25;1.70;;;17.90;99.90;;;;;;6164743;23;20009;-92
2022/07/08 07:54:25;;;;;;;6.30;1.80;;;17.70;99.90;;;;;;6163838;23;20009;-93
2022/07/08 07:56:57;;;;;;;7.55;1.70;;;17.50;99.90;;;;;;6164306;23;20092;-91
2022/07/08 07:59:33;;;;;;;5.35;1.60;;;17.60;99.90;;;;;;6139980;23;20020;-91
2022/07/08 08:02:27;;;;;;;6.18;1.60;;;17.80;99.90;;;;;;6163959;23;20063;-93
2022/07/08 08:04:53;;;;;;;4.47;1.65;;;17.70;99.90;;;;;;6142828;23;20067;-91
2022/07/08 08:07:22;;;;;;;3.25;1.27;;;17.80;99.90;;;;;;6164496;23;20023;-92
2022/07/08 08:10:14;;;;;;;6.13;1.60;;;18.50;99.90;;;;;;6162829;23;20345;-94
2022/07/08 08:16:30;;;;;;;5.28;1.83;;;17.90;99.90;;;;;;6166372;23;20409;-92
2022/07/08 08:23:35;;;;;;;;;;;;;;;;;;;;;
2022/07/08 08:26:37;;;;;;;4.18;1.52;;;18.20;99.90;;;;;;6183397;23;20140;-89
2022/07/08 08:37:19;;;;;;;5.28;1.63;;;18.10;99.90;;;;;;6192635;23;20007;-94
2022/07/08 08:43:36;;;;;;;7.88;1.58;;;18.10;99.90;;;;;;6195836;23;20015;-92
2022/07/08 09:08:36;;;;;;;4.53;1.67;;;17.70;99.90;;;;;;6159844;23;20060;-94
2022/07/08 09:11:11;;;;;;;3.28;1.48;;;18.10;99.90;;;;;;6105712;23;20170;-91
2022/07/08 09:13:43;;;;;;;4.30;1.85;;;18.30;99.90;;;;;;6105805;23;20104;-91
2022/07/08 09:16:09;;;;;;;6.28;1.67;;;18.40;99.90;;;;;;6105711;23;20092;-91
2022/07/08 09:18:39;;;;;;;8.23;1.83;;;18.60;99.90;;;;;;6127162;23;20110;-91
2022/07/08 09:21:06;;;;;;;5.93;1.80;;;19.00;99.90;;;;;;6159562;23;20025;-89
2022/07/08 09:23:37;;;;;;;6.50;1.60;;;19.00;99.90;;;;;;6176704;23;20011;-89
2022/07/08 09:26:08;;;;;;;4.05;1.58;;;19.30;99.90;;;;;;6196016;23;20008;-92
2022/07/08 09:28:44;;;;;;;3.92;1.98;;;18.90;99.90;;;;;;6196505;23;20074;-89
2022/07/08 09:31:12;;;;;;;6.57;2.08;;;18.90;99.90;;;;;;6195783;23;20012;-92
2022/07/08 09:33:39;;;;;;;5.53;1.80;;;18.80;99.90;;;;;;6195439;23;20031;-90
2022/07/08 09:36:09;;;;;;;9.05;2.50;;;18.90;99.90;;;;;;6195721;23;20023;-90
2022/07/08 09:38:45;;;;;;;6.93;1.88;;;18.90;99.90;;;;;;6196010;23;20012;-90
2022/07/08 09:41:17;;;;;;;5.05;2.38;;;19.10;99.90;;;;;;6195482;23;20022;-93
2022/07/08 09:43:56;;;;;;;7.80;2.75;;;18.90;99.90;;;;;;6147095;23;20023;-91
2022/07/08 09:46:22;;;;;;;5.43;2.15;;;18.90;99.90;;;;;;6195189;23;20016;-90
2022/07/08 09:48:48;;;;;;;4.35;2.00;;;18.90;99.90;;;;;;6195268;23;20475;-89
2022/07/08 09:51:17;;;;;;;5.15;2.22;;;19.00;99.90;;;;;;6196312;23;20016;-89
2022/07/08 09:53:43;;;;;;;5.63;2.05;;;19.10;99.90;;;;;;6195335;23;20020;-90
2022/07/08 09:56:12;;;;;;;7.38;2.03;;;19.00;99.90;;;;;;6195485;23;20116;-91
2022/07/08 09:58:41;;;;;;;3.33;1.80;;;19.00;99.90;;;;;;6195910;23;20023;-90
2022/07/08 10:01:07;;;;;;;6.03;1.83;;;19.00;99.90;;;;;;6170114;23;20016;-91
2022/07/08 10:03:35;;;;;;;8.23;2.13;;;19.20;99.90;;;;;;6196388;23;20094;-90
2022/07/08 10:06:01;;;;;;;4.32;1.80;;;19.50;99.90;;;;;;6196927;23;20008;-91
2022/07/08 10:08:27;;;;;;;5.03;1.75;;;19.60;99.90;;;;;;6209651;23;20453;-91
2022/07/08 10:10:57;;;;;;;5.32;1.88;;;19.70;99.90;;;;;;6220082;23;20130;-91
2022/07/08 10:13:27;;;;;;;7.22;2.00;;;19.70;99.90;;;;;;6220907;23;20456;-91
2022/07/08 10:16:00;;;;;;;4.68;1.70;;;19.70;99.90;;;;;;6220337;23;20067;-92
2022/07/08 10:18:39;;;;;;;3.92;1.60;;;19.90;99.90;;;;;;6220595;23;20113;-88
2022/07/08 10:21:10;;;;;;;5.45;1.77;;;20.00;99.90;;;;;;6220796;23;20016;-91
2022/07/08 10:23:49;;;;;;;6.22;2.05;;;19.90;99.90;;;;;;6221978;23;20008;-90
2022/07/08 10:26:23;;;;;;;6.30;1.85;;;20.10;99.90;;;;;;6220248;23;20451;-89
2022/07/08 10:44:13;;;;;;;6.25;1.70;;;20.90;99.90;;;;;;6196011;22;20008;-94
2022/07/08 10:59:35;;;;;;;6.78;2.08;;;21.30;99.90;;;;;;5992891;24;20072;-93
2022/07/08 11:12:51;;;;;;;4.95;1.85;;;21.60;99.90;;;;;;6337826;22;1392072;-94
2022/07/08 11:15:17;;;;;;;4.65;1.90;;;21.40;99.90;;;;;;6275756;22;20027;-95
2022/07/08 11:17:50;;;;;;;5.88;2.17;;;21.60;99.90;;;;;;6251107;22;20093;-96
2022/07/08 11:20:20;;;;;;;6.72;2.05;;;22.00;99.90;;;;;;6277367;22;20071;-95
2022/07/08 11:22:46;;;;;;;6.35;1.85;;;21.90;99.90;;;;;;6276108;22;20053;-95
2022/07/08 11:25:14;;;;;;;5.68;2.10;;;22.20;99.90;;;;;;6276116;22;20313;-95
2022/07/08 11:27:41;;;;;;;7.05;2.40;;;22.10;99.90;;;;;;6298463;22;20011;-96
2022/07/08 11:30:15;;;;;;;4.10;2.00;;;22.40;99.90;;;;;;6273252;22;20014;-95
2022/07/08 11:32:47;;;;;;;4.78;2.17;;;22.60;99.90;;;;;;6300104;22;20017;-95
2022/07/08 11:35:19;;;;;;;10.18;2.30;;;22.70;99.90;;;;;;6302561;22;20011;-94
2022/07/08 11:37:45;;;;;;;4.80;2.22;;;22.80;99.90;;;;;;6277078;22;20041;-95
2022/07/08 11:40:13;;;;;;;5.13;2.13;;;22.90;99.90;;;;;;6274848;22;20010;-92
2022/07/08 11:42:40;;;;;;;3.88;2.10;;;23.90;99.90;;;;;;6275175;22;20007;-95
2022/07/08 11:45:08;;;;;;;4.63;1.98;;;23.60;99.90;;;;;;6298811;22;20010;-96
2022/07/08 11:47:34;;;;;;;3.00;1.55;;;23.20;99.90;;;;;;6249700;22;20017;-95
2022/07/08 11:50:00;;;;;;;5.55;2.65;;;23.30;99.90;;;;;;6274763;22;20104;-94
2022/07/08 11:52:28;;;;;;;6.40;2.00;;;22.60;99.90;;;;;;6273873;22;20011;-94
2022/07/08 11:54:54;;;;;;;5.50;2.15;;;22.70;99.90;;;;;;6249955;22;20011;-96
2022/07/08 11:57:21;;;;;;;5.60;2.05;;;22.40;99.90;;;;;;6273398;22;20014;-95
2022/07/08 11:59:48;;;;;;;6.03;2.03;;;22.30;99.90;;;;;;6272358;22;20395;-95
2022/07/08 12:02:20;;;;;;;4.75;1.92;;;22.30;99.90;;;;;;6300064;22;20040;-95
2022/07/08 12:04:52;;;;;;;4.05;1.88;;;22.00;99.90;;;;;;6300183;22;20076;-95
2022/07/08 12:07:27;;;;;;;6.38;2.20;;;22.00;99.90;;;;;;6300400;22;20021;-93
2022/07/08 12:09:58;;;;;;;5.35;1.88;;;22.70;99.90;;;;;;6300457;22;20011;-95
2022/07/08 12:12:29;;;;;;;6.43;1.85;;;22.80;99.90;;;;;;6268059;22;20062;-95
2022/07/08 12:14:55;;;;;;;9.60;2.20;;;23.60;99.90;;;;;;6235460;22;20015;-96
2022/07/08 12:17:26;;;;;;;5.68;2.08;;;23.90;99.90;;;;;;6261328;22;20011;-96
2022/07/08 12:19:53;;;;;;;4.18;1.75;;;23.70;99.90;;;;;;6260613;22;20007;-94
2022/07/08 12:22:45;;;;;;;5.38;1.85;;;23.60;99.90;;;;;;6284946;22;20011;-94
2022/07/08 12:25:13;;;;;;;5.72;2.03;;;23.50;99.90;;;;;;6287228;22;20047;-96
2022/07/08 12:27:39;;;;;;;8.07;2.00;;;23.40;99.90;;;;;;6265648;22;20007;-95
2022/07/08 12:30:07;;;;;;;5.07;1.85;;;23.00;99.90;;;;;;6288308;22;20043;-96
2022/07/08 12:32:51;;;;;;;4.90;2.13;;;23.00;99.90;;;;;;6264892;22;20035;-95
2022/07/08 12:35:17;;;;;;;6.70;1.90;;;22.90;99.90;;;;;;6265932;22;20011;-95
2022/07/08 12:37:44;;;;;;;6.32;2.28;;;23.00;99.90;;;;;;6235116;22;20015;-94
2022/07/08 12:40:14;;;;;;;6.40;2.15;;;23.00;99.90;;;;;;6260794;22;20019;-95
2022/07/08 12:42:41;;;;;;;5.78;2.20;;;22.80;99.90;;;;;;6288173;22;20002;-94
2022/07/08 12:45:17;;;;;;;4.88;2.17;;;22.70;99.90;;;;;;6313809;22;20015;-94
2022/07/08 12:47:43;;;;;;;5.75;2.13;;;22.60;99.90;;;;;;6260705;22;20011;-94
2022/07/08 12:50:22;;;;;;;4.05;1.95;;;22.30;99.90;;;;;;6287763;22;20086;-95
2022/07/08 12:52:48;;;;;;;4.65;2.20;;;22.00;99.90;;;;;;6260834;22;20011;-94
2022/07/08 12:55:14;;;;;;;4.75;2.10;;;21.90;99.90;;;;;;6263879;22;20022;-95
2022/07/08 12:57:41;;;;;;;5.40;2.55;;;22.10;99.90;;;;;;6288816;22;20015;-95
2022/07/08 13:00:07;;;;;;;7.38;2.60;;;22.00;99.90;;;;;;6238735;22;20011;-95
2022/07/08 13:02:33;;;;;;;6.72;2.25;;;22.30;99.90;;;;;;6261159;22;20011;-94
2022/07/08 13:04:59;;;;;;;5.97;2.17;;;22.20;99.90;;;;;;6261401;22;20007;-94
2022/07/08 13:07:27;;;;;;;4.75;2.17;;;22.10;99.90;;;;;;6262544;22;20090;-95
2022/07/08 13:09:53;;;;;;;7.63;2.63;;;22.20;99.90;;;;;;6257527;22;20049;-90
2022/07/08 13:12:19;;;;;;;6.53;1.90;;;22.40;99.90;;;;;;6230886;22;20020;-96
2022/07/08 13:14:45;;;;;;;5.03;2.10;;;22.50;99.90;;;;;;6260102;22;20042;-95
2022/07/08 13:17:10;;;;;;;4.25;2.17;;;22.30;99.90;;;;;;6260458;22;20015;-95
2022/07/08 13:19:36;;;;;;;5.40;1.85;;;22.00;99.90;;;;;;6234911;22;20061;-93
2022/07/08 13:22:03;;;;;;;4.90;1.90;;;21.80;99.90;;;;;;6235668;22;20015;-95
2022/07/08 13:24:29;;;;;;;4.53;1.90;;;21.80;99.90;;;;;;6286283;22;20007;-94
2022/07/08 13:26:56;;;;;;;4.70;2.25;;;21.70;99.90;;;;;;6263445;22;20160;-96
2022/07/08 13:29:22;;;;;;;8.65;2.97;;;22.00;99.90;;;;;;6236923;22;20007;-94
2022/07/08 13:31:48;;;;;;;4.10;2.20;;;22.50;99.90;;;;;;6235496;22;20035;-93
2022/07/08 13:34:19;;;;;;;4.38;2.30;;;22.80;99.90;;;;;;6235422;22;20067;-95
2022/07/08 13:36:45;;;;;;;5.80;1.88;;;23.10;99.90;;;;;;6239702;22;20019;-95
2022/07/08 13:39:11;;;;;;;3.25;1.85;;;22.80;99.90;;;;;;6260749;22;20015;-94
2022/07/08 13:41:37;;;;;;;5.03;2.08;;;22.50;99.90;;;;;;6285704;22;20017;-94
2022/07/08 13:44:03;;;;;;;5.22;2.70;;;22.70;99.90;;;;;;6258816;22;20007;-94
2022/07/08 13:46:30;;;;;;;9.82;2.25;;;22.40;99.90;;;;;;6260259;22;20065;-94
2022/07/08 13:48:57;;;;;;;6.53;2.22;;;22.60;99.90;;;;;;6282912;22;20011;-93
2022/07/08 13:51:23;;;;;;;8.77;2.80;;;22.40;99.90;;;;;;6233117;22;20015;-93
2022/07/08 13:53:49;;;;;;;5.40;2.65;;;22.40;99.90;;;;;;6258512;22;20015;-92
2022/07/08 13:56:15;;;;;;;9.35;2.70;;;22.00;99.90;;;;;;6232175;22;20018;-93
2022/07/08 13:58:40;;;;;;;4.82;1.80;;;21.90;99.90;;;;;;6282740;22;20025;-93
2022/07/08 14:01:22;;;;;;;4.32;1.85;;;21.80;99.90;;;;;;6256586;22;20015;-91
2022/07/08 14:03:48;;;;;;;5.65;2.20;;;21.80;99.90;;;;;;6231312;22;20011;-93
2022/07/08 14:06:14;;;;;;;4.97;2.30;;;21.50;99.90;;;;;;6234153;22;20011;-93
2022/07/08 14:11:13;;;;;;;5.43;2.30;;;22.00;99.90;;;;;;6250614;23;20028;-94
2022/07/08 14:13:39;;;;;;;4.68;2.30;;;22.50;99.90;;;;;;6173944;23;20099;-96
2022/07/08 14:16:06;;;;;;;7.53;2.47;;;22.10;99.90;;;;;;6172605;23;20019;-93
2022/07/08 14:18:32;;;;;;;4.72;2.35;;;22.30;99.90;;;;;;6171539;23;20027;-93
2022/07/08 14:20:58;;;;;;;6.10;2.10;;;22.30;99.90;;;;;;6196683;23;20016;-95
2022/07/08 14:23:24;;;;;;;4.53;2.33;;;22.10;99.90;;;;;;6172408;23;20025;-92
2022/07/08 14:25:50;;;;;;;5.85;2.40;;;22.00;99.90;;;;;;6170863;23;20011;-91